Danzig, Poland
Current Conditions -  °F | °C
As of 5:00 PM on Thursday 30 Oct 2014 (Local Time) from EPGD Reporting Station
Scattered Clouds Scattered Clouds  
Wind Chill: 43°   Ceiling: Unl
Heat Index: 46°   Visibility: 6mi
Dew Point: 41°   Wind: 7mph
Humidity: 81%   Direction: 300°WNW
Pressure: 30.24"   Gusts: NA
Location:  54.38°N, 18.47°E
Report Text: EPGD 301500Z 30006KT 9999 SCT023 08/05 Q1024
Loading
Personal Weather Stations






























Interactive Weather Map
Tropical Storm Tracking
New forecast layout! Learn more

10-Day Weather Forecast

Advertisements
Track Severe Weather on mobile